Middlefield, Ohio
Current Conditions -  °F | °C
As of 12:37 AM on Monday 20 Oct 2014 (Local Time) from KPOV Reporting Station
Clear Clear  
Wind Chill: 44°   Ceiling: Unl
Heat Index: 44°   Visibility: 10mi
Dew Point: 33°   Wind: 0mph
Humidity: 65%   Direction: NA
Pressure: 30.02"   Gusts: NA
Location:  41.46°N, 81.07°W
Report Text: KPOV 200437Z AUTO 00000KT 10SM CLR 07/00 A3002 RMK AO2 T00650004
Loading
Personal Weather Stations






























Interactive Weather Map
Tropical Storm Tracking
New forecast layout! Learn more

10-Day Weather Forecast

Advertisements
Track Severe Weather on mobile